sensor_id;sensor_type;location;lat;lon;timestamp;temperature;humidity
46137;DHT22;31871;49.418;8.752;2022-12-26T00:01:09;10.70;99.90
46137;DHT22;31871;49.418;8.752;2022-12-26T00:03:36;10.70;99.90
46137;DHT22;31871;49.418;8.752;2022-12-26T00:06:01;10.70;99.90
46137;DHT22;31871;49.418;8.752;2022-12-26T00:08:27;10.70;99.90
46137;DHT22;31871;49.418;8.752;2022-12-26T00:10:52;10.60;99.90
46137;DHT22;31871;49.418;8.752;2022-12-26T00:13:18;10.60;99.90
46137;DHT22;31871;49.418;8.752;2022-12-26T00:15:43;10.60;99.90
46137;DHT22;31871;49.418;8.752;2022-12-26T00:18:10;10.50;99.90
46137;DHT22;31871;49.418;8.752;2022-12-26T00:20:36;10.40;99.90
46137;DHT22;31871;49.418;8.752;2022-12-26T00:23:01;10.40;99.90
46137;DHT22;31871;49.418;8.752;2022-12-26T00:25:27;10.30;99.90
46137;DHT22;31871;49.418;8.752;2022-12-26T00:27:52;10.40;99.90
46137;DHT22;31871;49.418;8.752;2022-12-26T00:30:18;10.40;99.90
46137;DHT22;31871;49.418;8.752;2022-12-26T00:32:43;10.50;99.90
46137;DHT22;31871;49.418;8.752;2022-12-26T00:35:09;10.50;99.90
46137;DHT22;31871;49.418;8.752;2022-12-26T00:37:35;10.60;99.90
46137;DHT22;31871;49.418;8.752;2022-12-26T00:40:00;10.70;99.90
46137;DHT22;31871;49.418;8.752;2022-12-26T00:42:26;10.70;99.90
46137;DHT22;31871;49.418;8.752;2022-12-26T00:44:52;10.80;99.90
46137;DHT22;31871;49.418;8.752;2022-12-26T00:47:17;10.80;99.90
46137;DHT22;31871;49.418;8.752;2022-12-26T00:49:43;10.90;99.90
46137;DHT22;31871;49.418;8.752;2022-12-26T00:52:08;11.00;99.90
46137;DHT22;31871;49.418;8.752;2022-12-26T00:54:34;11.10;99.90
46137;DHT22;31871;49.418;8.752;2022-12-26T00:56:59;11.10;99.90
46137;DHT22;31871;49.418;8.752;2022-12-26T00:59:25;11.00;99.90
46137;DHT22;31871;49.418;8.752;2022-12-26T01:01:50;11.00;99.90
46137;DHT22;31871;49.418;8.752;2022-12-26T01:04:16;11.00;99.90
46137;DHT22;31871;49.418;8.752;2022-12-26T01:06:41;11.00;99.90
46137;DHT22;31871;49.418;8.752;2022-12-26T01:09:07;11.10;99.90
46137;DHT22;31871;49.418;8.752;2022-12-26T01:11:36;11.20;99.90
46137;DHT22;31871;49.418;8.752;2022-12-26T01:14:06;11.30;99.90
46137;DHT22;31871;49.418;8.752;2022-12-26T01:16:32;11.40;99.90
46137;DHT22;31871;49.418;8.752;2022-12-26T01:18:58;11.50;99.90
46137;DHT22;31871;49.418;8.752;2022-12-26T01:21:23;11.70;99.90
46137;DHT22;31871;49.418;8.752;2022-12-26T01:23:49;11.70;99.90
46137;DHT22;31871;49.418;8.752;2022-12-26T01:26:14;11.60;99.90
46137;DHT22;31871;49.418;8.752;2022-12-26T01:28:40;11.50;99.90
46137;DHT22;31871;49.418;8.752;2022-12-26T01:31:05;11.50;99.90
46137;DHT22;31871;49.418;8.752;2022-12-26T01:33:31;11.60;99.90
46137;DHT22;31871;49.418;8.752;2022-12-26T01:35:57;11.50;99.90
46137;DHT22;31871;49.418;8.752;2022-12-26T01:38:23;11.60;99.90
46137;DHT22;31871;49.418;8.752;2022-12-26T01:40:49;11.70;99.90
46137;DHT22;31871;49.418;8.752;2022-12-26T01:46:30;11.80;99.90
46137;DHT22;31871;49.418;8.752;2022-12-26T01:49:01;11.80;99.90
46137;DHT22;31871;49.418;8.752;2022-12-26T01:51:32;11.90;99.90
46137;DHT22;31871;49.418;8.752;2022-12-26T01:54:03;11.90;99.90
46137;DHT22;31871;49.418;8.752;2022-12-26T01:56:35;12.00;99.90
46137;DHT22;31871;49.418;8.752;2022-12-26T01:59:06;11.90;99.90
46137;DHT22;31871;49.418;8.752;2022-12-26T02:01:36;11.70;99.90
46137;DHT22;31871;49.418;8.752;2022-12-26T02:04:06;11.60;99.90
46137;DHT22;31871;49.418;8.752;2022-12-26T02:06:52;11.70;99.90
46137;DHT22;31871;49.418;8.752;2022-12-26T02:09:18;11.80;99.90
46137;DHT22;31871;49.418;8.752;2022-12-26T02:11:49;11.80;99.90
46137;DHT22;31871;49.418;8.752;2022-12-26T02:14:16;11.80;99.90
46137;DHT22;31871;49.418;8.752;2022-12-26T02:16:41;11.80;99.90
46137;DHT22;31871;49.418;8.752;2022-12-26T02:19:17;11.80;99.90
46137;DHT22;31871;49.418;8.752;2022-12-26T02:22:04;11.80;99.90
46137;DHT22;31871;49.418;8.752;2022-12-26T02:25:13;11.80;99.90
46137;DHT22;31871;49.418;8.752;2022-12-26T02:27:52;11.80;99.90
46137;DHT22;31871;49.418;8.752;2022-12-26T02:46:39;11.60;99.90
46137;DHT22;31871;49.418;8.752;2022-12-26T02:52:49;11.60;99.90
46137;DHT22;31871;49.418;8.752;2022-12-26T02:55:37;11.70;99.90
46137;DHT22;31871;49.418;8.752;2022-12-26T03:01:43;11.90;99.90
46137;DHT22;31871;49.418;8.752;2022-12-26T03:04:30;11.90;99.90
46137;DHT22;31871;49.418;8.752;2022-12-26T03:07:19;11.70;99.90
46137;DHT22;31871;49.418;8.752;2022-12-26T03:10:23;11.70;99.90
46137;DHT22;31871;49.418;8.752;2022-12-26T03:13:15;11.50;99.90
46137;DHT22;31871;49.418;8.752;2022-12-26T03:18:28;11.40;99.90
46137;DHT22;31871;49.418;8.752;2022-12-26T03:20:56;11.30;99.90
46137;DHT22;31871;49.418;8.752;2022-12-26T03:23:21;11.20;99.90
46137;DHT22;31871;49.418;8.752;2022-12-26T03:25:55;11.30;99.90
46137;DHT22;31871;49.418;8.752;2022-12-26T03:28:40;11.30;99.90
46137;DHT22;31871;49.418;8.752;2022-12-26T03:31:09;11.40;99.90
46137;DHT22;31871;49.418;8.752;2022-12-26T03:33:43;11.50;99.90
46137;DHT22;31871;49.418;8.752;2022-12-26T03:41:30;11.60;99.90
46137;DHT22;31871;49.418;8.752;2022-12-26T03:44:31;11.70;99.90
46137;DHT22;31871;49.418;8.752;2022-12-26T03:47:26;11.70;99.90
46137;DHT22;31871;49.418;8.752;2022-12-26T03:50:35;11.70;99.90
46137;DHT22;31871;49.418;8.752;2022-12-26T03:53:30;11.80;99.90
46137;DHT22;31871;49.418;8.752;2022-12-26T03:59:22;12.00;99.90
46137;DHT22;31871;49.418;8.752;2022-12-26T04:02:11;12.10;99.90
46137;DHT22;31871;49.418;8.752;2022-12-26T04:04:58;12.00;99.90
46137;DHT22;31871;49.418;8.752;2022-12-26T04:07:47;12.10;99.90
46137;DHT22;31871;49.418;8.752;2022-12-26T04:10:54;12.20;99.90
46137;DHT22;31871;49.418;8.752;2022-12-26T04:20:25;12.20;99.90
46137;DHT22;31871;49.418;8.752;2022-12-26T04:23:08;12.10;99.90
46137;DHT22;31871;49.418;8.752;2022-12-26T04:26:13;12.10;99.90
46137;DHT22;31871;49.418;8.752;2022-12-26T04:28:59;12.10;99.90
46137;DHT22;31871;49.418;8.752;2022-12-26T04:34:36;12.00;99.90
46137;DHT22;31871;49.418;8.752;2022-12-26T04:37:24;11.90;99.90
46137;DHT22;31871;49.418;8.752;2022-12-26T04:40:15;11.90;99.90
46137;DHT22;31871;49.418;8.752;2022-12-26T04:43:01;11.90;99.90
46137;DHT22;31871;49.418;8.752;2022-12-26T04:45:47;11.90;99.90
46137;DHT22;31871;49.418;8.752;2022-12-26T04:48:12;11.80;99.90
46137;DHT22;31871;49.418;8.752;2022-12-26T04:50:58;11.80;99.90
46137;DHT22;31871;49.418;8.752;2022-12-26T04:53:23;11.70;99.90
46137;DHT22;31871;49.418;8.752;2022-12-26T04:55:49;11.60;99.90
46137;DHT22;31871;49.418;8.752;2022-12-26T04:58:14;11.50;99.90
46137;DHT22;31871;49.418;8.752;2022-12-26T05:00:40;11.40;99.90
46137;DHT22;31871;49.418;8.752;2022-12-26T05:03:13;11.40;99.90
46137;DHT22;31871;49.418;8.752;2022-12-26T05:05:58;11.40;99.90
46137;DHT22;31871;49.418;8.752;2022-12-26T05:08:43;11.50;99.90
46137;DHT22;31871;49.418;8.752;2022-12-26T05:11:31;11.50;99.90
46137;DHT22;31871;49.418;8.752;2022-12-26T05:13:58;11.40;99.90
46137;DHT22;31871;49.418;8.752;2022-12-26T05:16:24;11.40;99.90
46137;DHT22;31871;49.418;8.752;2022-12-26T05:19:13;11.40;99.90
46137;DHT22;31871;49.418;8.752;2022-12-26T05:22:18;11.40;99.90
46137;DHT22;31871;49.418;8.752;2022-12-26T05:25:03;11.40;99.90
46137;DHT22;31871;49.418;8.752;2022-12-26T05:27:47;11.40;99.90
46137;DHT22;31871;49.418;8.752;2022-12-26T05:30:31;11.30;99.90
46137;DHT22;31871;49.418;8.752;2022-12-26T05:32:57;11.30;99.90
46137;DHT22;31871;49.418;8.752;2022-12-26T05:35:41;11.30;99.90
46137;DHT22;31871;49.418;8.752;2022-12-26T05:38:09;11.30;99.90
46137;DHT22;31871;49.418;8.752;2022-12-26T05:40:35;11.40;99.90
46137;DHT22;31871;49.418;8.752;2022-12-26T05:43:00;11.50;99.90
46137;DHT22;31871;49.418;8.752;2022-12-26T05:45:26;11.50;99.90
46137;DHT22;31871;49.418;8.752;2022-12-26T05:48:00;11.50;99.90
46137;DHT22;31871;49.418;8.752;2022-12-26T05:50:27;11.50;99.90
46137;DHT22;31871;49.418;8.752;2022-12-26T05:52:52;11.50;99.90
46137;DHT22;31871;49.418;8.752;2022-12-26T05:55:20;11.50;99.90
46137;DHT22;31871;49.418;8.752;2022-12-26T05:57:46;11.50;99.90
46137;DHT22;31871;49.418;8.752;2022-12-26T06:00:12;11.50;99.90
46137;DHT22;31871;49.418;8.752;2022-12-26T06:02:38;11.60;99.90
46137;DHT22;31871;49.418;8.752;2022-12-26T06:05:04;11.70;99.90
46137;DHT22;31871;49.418;8.752;2022-12-26T06:07:29;11.80;99.90
46137;DHT22;31871;49.418;8.752;2022-12-26T06:09:55;12.10;99.90
46137;DHT22;31871;49.418;8.752;2022-12-26T06:12:20;12.10;99.90
46137;DHT22;31871;49.418;8.752;2022-12-26T06:14:46;12.20;99.90
46137;DHT22;31871;49.418;8.752;2022-12-26T06:17:11;12.20;99.90
46137;DHT22;31871;49.418;8.752;2022-12-26T06:19:38;12.10;99.90
46137;DHT22;31871;49.418;8.752;2022-12-26T06:22:04;12.10;99.90
46137;DHT22;31871;49.418;8.752;2022-12-26T06:24:30;12.20;99.90
46137;DHT22;31871;49.418;8.752;2022-12-26T06:26:55;12.20;99.90
46137;DHT22;31871;49.418;8.752;2022-12-26T06:29:21;12.10;99.90
46137;DHT22;31871;49.418;8.752;2022-12-26T06:31:46;12.00;99.90
46137;DHT22;31871;49.418;8.752;2022-12-26T06:34:12;11.90;99.90
46137;DHT22;31871;49.418;8.752;2022-12-26T06:36:38;12.00;99.90
46137;DHT22;31871;49.418;8.752;2022-12-26T06:39:03;12.00;99.90
46137;DHT22;31871;49.418;8.752;2022-12-26T06:41:29;11.90;99.90
46137;DHT22;31871;49.418;8.752;2022-12-26T06:43:54;11.80;99.90
46137;DHT22;31871;49.418;8.752;2022-12-26T06:46:22;11.80;99.90
46137;DHT22;31871;49.418;8.752;2022-12-26T06:48:48;11.90;99.90
46137;DHT22;31871;49.418;8.752;2022-12-26T06:51:17;11.90;99.90
46137;DHT22;31871;49.418;8.752;2022-12-26T06:53:43;11.80;99.90
46137;DHT22;31871;49.418;8.752;2022-12-26T06:56:14;11.80;99.90
46137;DHT22;31871;49.418;8.752;2022-12-26T06:58:42;11.80;99.90
46137;DHT22;31871;49.418;8.752;2022-12-26T07:01:13;11.80;99.90
46137;DHT22;31871;49.418;8.752;2022-12-26T07:03:40;11.90;99.90
46137;DHT22;31871;49.418;8.752;2022-12-26T07:06:12;12.10;99.90
46137;DHT22;31871;49.418;8.752;2022-12-26T07:08:41;12.30;99.90
46137;DHT22;31871;49.418;8.752;2022-12-26T07:11:13;12.20;99.90
46137;DHT22;31871;49.418;8.752;2022-12-26T07:13:38;12.30;99.90
46137;DHT22;31871;49.418;8.752;2022-12-26T07:16:04;12.20;99.90
46137;DHT22;31871;49.418;8.752;2022-12-26T07:18:29;12.10;99.90
46137;DHT22;31871;49.418;8.752;2022-12-26T07:20:55;12.10;99.90
46137;DHT22;31871;49.418;8.752;2022-12-26T07:23:20;12.00;99.90
46137;DHT22;31871;49.418;8.752;2022-12-26T07:25:47;12.10;99.90
46137;DHT22;31871;49.418;8.752;2022-12-26T07:28:13;12.00;99.90
46137;DHT22;31871;49.418;8.752;2022-12-26T07:30:44;12.00;99.90
46137;DHT22;31871;49.418;8.752;2022-12-26T07:33:09;11.90;99.90
46137;DHT22;31871;49.418;8.752;2022-12-26T07:35:35;11.90;99.90
46137;DHT22;31871;49.418;8.752;2022-12-26T07:38:00;11.90;99.90
46137;DHT22;31871;49.418;8.752;2022-12-26T07:40:26;11.90;99.90
46137;DHT22;31871;49.418;8.752;2022-12-26T07:42:53;11.80;99.90
46137;DHT22;31871;49.418;8.752;2022-12-26T07:45:19;11.80;99.90
46137;DHT22;31871;49.418;8.752;2022-12-26T07:47:44;11.80;99.90
46137;DHT22;31871;49.418;8.752;2022-12-26T07:50:10;11.80;99.90
46137;DHT22;31871;49.418;8.752;2022-12-26T07:52:36;12.00;99.90
46137;DHT22;31871;49.418;8.752;2022-12-26T07:55:02;12.00;99.90
46137;DHT22;31871;49.418;8.752;2022-12-26T07:57:28;12.00;99.90
46137;DHT22;31871;49.418;8.752;2022-12-26T07:59:54;12.00;99.90
46137;DHT22;31871;49.418;8.752;2022-12-26T08:02:20;11.90;99.90
46137;DHT22;31871;49.418;8.752;2022-12-26T08:04:45;11.90;99.90
46137;DHT22;31871;49.418;8.752;2022-12-26T08:07:11;11.90;99.90
46137;DHT22;31871;49.418;8.752;2022-12-26T08:09:37;11.80;99.90
46137;DHT22;31871;49.418;8.752;2022-12-26T08:12:07;11.80;99.90
46137;DHT22;31871;49.418;8.752;2022-12-26T08:14:35;11.80;99.90
46137;DHT22;31871;49.418;8.752;2022-12-26T08:17:00;11.80;99.90
46137;DHT22;31871;49.418;8.752;2022-12-26T08:19:26;11.70;99.90
46137;DHT22;31871;49.418;8.752;2022-12-26T08:21:51;11.70;99.90
46137;DHT22;31871;49.418;8.752;2022-12-26T08:24:17;11.80;99.90
46137;DHT22;31871;49.418;8.752;2022-12-26T08:26:42;11.80;99.90
46137;DHT22;31871;49.418;8.752;2022-12-26T08:29:09;11.70;99.90
46137;DHT22;31871;49.418;8.752;2022-12-26T08:31:35;11.70;99.90
46137;DHT22;31871;49.418;8.752;2022-12-26T08:34:00;11.70;99.90
46137;DHT22;31871;49.418;8.752;2022-12-26T08:36:26;11.80;99.90
46137;DHT22;31871;49.418;8.752;2022-12-26T08:38:52;11.80;99.90
46137;DHT22;31871;49.418;8.752;2022-12-26T08:41:18;11.80;99.90
46137;DHT22;31871;49.418;8.752;2022-12-26T08:43:47;11.90;99.90
46137;DHT22;31871;49.418;8.752;2022-12-26T08:46:13;11.90;99.90
46137;DHT22;31871;49.418;8.752;2022-12-26T08:48:39;12.00;99.90
46137;DHT22;31871;49.418;8.752;2022-12-26T08:51:08;12.10;99.90
46137;DHT22;31871;49.418;8.752;2022-12-26T08:53:34;12.00;99.90
46137;DHT22;31871;49.418;8.752;2022-12-26T08:56:02;12.00;99.90
46137;DHT22;31871;49.418;8.752;2022-12-26T08:58:28;12.10;99.90
46137;DHT22;31871;49.418;8.752;2022-12-26T09:00:54;12.10;99.90
46137;DHT22;31871;49.418;8.752;2022-12-26T09:03:20;12.10;99.90
46137;DHT22;31871;49.418;8.752;2022-12-26T09:05:46;12.20;99.90
46137;DHT22;31871;49.418;8.752;2022-12-26T09:08:11;12.20;99.90
46137;DHT22;31871;49.418;8.752;2022-12-26T09:10:37;12.10;99.90
46137;DHT22;31871;49.418;8.752;2022-12-26T09:13:03;12.20;99.90
46137;DHT22;31871;49.418;8.752;2022-12-26T09:15:28;12.20;99.90
46137;DHT22;31871;49.418;8.752;2022-12-26T09:17:54;12.10;99.90
46137;DHT22;31871;49.418;8.752;2022-12-26T09:20:19;12.10;99.90
46137;DHT22;31871;49.418;8.752;2022-12-26T09:22:45;11.90;99.90
46137;DHT22;31871;49.418;8.752;2022-12-26T09:25:21;11.90;99.90
46137;DHT22;31871;49.418;8.752;2022-12-26T09:27:48;11.80;99.90
46137;DHT22;31871;49.418;8.752;2022-12-26T09:30:14;11.90;99.90
46137;DHT22;31871;49.418;8.752;2022-12-26T09:32:39;11.90;99.90
46137;DHT22;31871;49.418;8.752;2022-12-26T09:35:06;11.90;99.90
46137;DHT22;31871;49.418;8.752;2022-12-26T09:37:32;11.90;99.90
46137;DHT22;31871;49.418;8.752;2022-12-26T09:39:57;12.00;99.90
46137;DHT22;31871;49.418;8.752;2022-12-26T09:42:32;12.10;99.90
46137;DHT22;31871;49.418;8.752;2022-12-26T09:45:10;12.00;99.90
46137;DHT22;31871;49.418;8.752;2022-12-26T09:50:33;11.80;99.90
46137;DHT22;31871;49.418;8.752;2022-12-26T09:53:29;11.80;99.90
46137;DHT22;31871;49.418;8.752;2022-12-26T09:55:58;11.80;99.90
46137;DHT22;31871;49.418;8.752;2022-12-26T09:58:43;11.80;99.90
46137;DHT22;31871;49.418;8.752;2022-12-26T10:01:38;11.70;99.90
46137;DHT22;31871;49.418;8.752;2022-12-26T10:04:15;11.80;99.90
46137;DHT22;31871;49.418;8.752;2022-12-26T10:06:48;11.80;99.90
46137;DHT22;31871;49.418;8.752;2022-12-26T10:09:29;11.80;99.90
46137;DHT22;31871;49.418;8.752;2022-12-26T10:14:56;11.80;99.90
46137;DHT22;31871;49.418;8.752;2022-12-26T10:17:50;11.80;99.90
46137;DHT22;31871;49.418;8.752;2022-12-26T10:20:24;11.90;99.90
46137;DHT22;31871;49.418;8.752;2022-12-26T10:25:45;11.90;99.90
46137;DHT22;31871;49.418;8.752;2022-12-26T10:30:42;11.90;99.90
46137;DHT22;31871;49.418;8.752;2022-12-26T10:33:19;12.00;99.90
46137;DHT22;31871;49.418;8.752;2022-12-26T10:35:48;12.00;99.90
46137;DHT22;31871;49.418;8.752;2022-12-26T10:38:32;11.90;99.90
46137;DHT22;31871;49.418;8.752;2022-12-26T10:41:05;11.90;99.90
46137;DHT22;31871;49.418;8.752;2022-12-26T10:43:34;12.00;99.90
46137;DHT22;31871;49.418;8.752;2022-12-26T10:48:52;12.10;99.90
46137;DHT22;31871;49.418;8.752;2022-12-26T10:51:18;12.10;99.90
46137;DHT22;31871;49.418;8.752;2022-12-26T10:53:50;12.00;99.90
46137;DHT22;31871;49.418;8.752;2022-12-26T10:56:16;12.00;99.90
46137;DHT22;31871;49.418;8.752;2022-12-26T10:58:43;12.10;99.90
46137;DHT22;31871;49.418;8.752;2022-12-26T11:03:59;12.10;99.90
46137;DHT22;31871;49.418;8.752;2022-12-26T11:06:31;12.00;99.90
46137;DHT22;31871;49.418;8.752;2022-12-26T11:08:58;12.10;99.90
46137;DHT22;31871;49.418;8.752;2022-12-26T11:11:32;12.00;99.90
46137;DHT22;31871;49.418;8.752;2022-12-26T11:16:53;12.20;99.90
46137;DHT22;31871;49.418;8.752;2022-12-26T11:19:41;12.10;99.90
46137;DHT22;31871;49.418;8.752;2022-12-26T11:27:32;12.10;99.90
46137;DHT22;31871;49.418;8.752;2022-12-26T11:30:31;12.10;99.90
46137;DHT22;31871;49.418;8.752;2022-12-26T11:33:16;12.10;99.90
46137;DHT22;31871;49.418;8.752;2022-12-26T11:38:19;12.10;99.90
46137;DHT22;31871;49.418;8.752;2022-12-26T11:41:08;12.00;99.90
46137;DHT22;31871;49.418;8.752;2022-12-26T11:43:55;12.00;99.90
46137;DHT22;31871;49.418;8.752;2022-12-26T11:46:31;12.00;99.90
46137;DHT22;31871;49.418;8.752;2022-12-26T11:48:58;12.00;99.90
46137;DHT22;31871;49.418;8.752;2022-12-26T11:51:37;12.00;99.90
46137;DHT22;31871;49.418;8.752;2022-12-26T11:56:43;12.20;99.90
46137;DHT22;31871;49.418;8.752;2022-12-26T11:59:27;12.10;99.90
46137;DHT22;31871;49.418;8.752;2022-12-26T12:02:23;12.10;99.90
46137;DHT22;31871;49.418;8.752;2022-12-26T12:04:52;12.10;99.90
46137;DHT22;31871;49.418;8.752;2022-12-26T12:08:01;12.20;99.90
46137;DHT22;31871;49.418;8.752;2022-12-26T12:16:39;12.30;99.90
46137;DHT22;31871;49.418;8.752;2022-12-26T12:22:09;12.20;99.90
46137;DHT22;31871;49.418;8.752;2022-12-26T12:24:47;12.20;99.90
46137;DHT22;31871;49.418;8.752;2022-12-26T12:27:43;12.20;99.90
46137;DHT22;31871;49.418;8.752;2022-12-26T12:43:31;12.30;99.90
46137;DHT22;31871;49.418;8.752;2022-12-26T12:46:08;12.30;99.90
46137;DHT22;31871;49.418;8.752;2022-12-26T13:03:08;12.20;99.90
46137;DHT22;31871;49.418;8.752;2022-12-26T13:05:54;12.20;99.90
46137;DHT22;31871;49.418;8.752;2022-12-26T13:16:52;12.20;99.90
46137;DHT22;31871;49.418;8.752;2022-12-26T13:19:22;12.20;99.90
46137;DHT22;31871;49.418;8.752;2022-12-26T13:21:51;12.10;99.90
46137;DHT22;31871;49.418;8.752;2022-12-26T13:29:41;12.40;99.90
46137;DHT22;31871;49.418;8.752;2022-12-26T13:32:29;12.50;99.90
46137;DHT22;31871;49.418;8.752;2022-12-26T13:34:57;12.40;99.90
46137;DHT22;31871;49.418;8.752;2022-12-26T13:40:28;12.40;99.90
46137;DHT22;31871;49.418;8.752;2022-12-26T13:42:59;12.30;99.90
46137;DHT22;31871;49.418;8.752;2022-12-26T13:45:55;12.30;99.90
46137;DHT22;31871;49.418;8.752;2022-12-26T13:51:03;12.20;99.90
46137;DHT22;31871;49.418;8.752;2022-12-26T13:53:31;12.30;99.90
46137;DHT22;31871;49.418;8.752;2022-12-26T13:58:45;12.30;99.90
46137;DHT22;31871;49.418;8.752;2022-12-26T14:01:34;12.40;99.90
46137;DHT22;31871;49.418;8.752;2022-12-26T14:10:14;12.20;99.90
46137;DHT22;31871;49.418;8.752;2022-12-26T14:18:04;12.00;99.90
46137;DHT22;31871;49.418;8.752;2022-12-26T14:28:50;12.00;99.90
46137;DHT22;31871;49.418;8.752;2022-12-26T14:37:34;12.10;99.90
46137;DHT22;31871;49.418;8.752;2022-12-26T14:40:55;12.10;99.90
46137;DHT22;31871;49.418;8.752;2022-12-26T14:45:37;12.10;99.90
46137;DHT22;31871;49.418;8.752;2022-12-26T14:50:50;12.10;99.90
46137;DHT22;31871;49.418;8.752;2022-12-26T14:56:39;12.10;99.90
46137;DHT22;31871;49.418;8.752;2022-12-26T15:09:55;12.30;99.90
46137;DHT22;31871;49.418;8.752;2022-12-26T15:18:35;12.20;99.90
46137;DHT22;31871;49.418;8.752;2022-12-26T15:22:16;12.20;99.90
46137;DHT22;31871;49.418;8.752;2022-12-26T15:35:33;12.00;99.90
46137;DHT22;31871;49.418;8.752;2022-12-26T15:43:37;12.00;99.90
46137;DHT22;31871;49.418;8.752;2022-12-26T15:46:45;12.10;99.90
46137;DHT22;31871;49.418;8.752;2022-12-26T15:57:27;12.00;99.90
46137;DHT22;31871;49.418;8.752;2022-12-26T16:10:48;12.00;99.90
46137;DHT22;31871;49.418;8.752;2022-12-26T16:13:16;12.00;99.90
46137;DHT22;31871;49.418;8.752;2022-12-26T16:15:54;11.90;99.90
46137;DHT22;31871;49.418;8.752;2022-12-26T16:18:24;11.90;99.90
46137;DHT22;31871;49.418;8.752;2022-12-26T16:20:52;12.00;99.90
46137;DHT22;31871;49.418;8.752;2022-12-26T16:23:39;12.00;99.90
46137;DHT22;31871;49.418;8.752;2022-12-26T16:26:06;12.10;99.90
46137;DHT22;31871;49.418;8.752;2022-12-26T16:28:42;12.00;99.90
46137;DHT22;31871;49.418;8.752;2022-12-26T16:31:11;12.00;99.90
46137;DHT22;31871;49.418;8.752;2022-12-26T16:33:42;12.00;99.90
46137;DHT22;31871;49.418;8.752;2022-12-26T16:36:10;12.00;99.90
46137;DHT22;31871;49.418;8.752;2022-12-26T16:38:37;12.00;99.90
46137;DHT22;31871;49.418;8.752;2022-12-26T16:41:20;12.00;99.90
46137;DHT22;31871;49.418;8.752;2022-12-26T16:43:46;11.90;99.90
46137;DHT22;31871;49.418;8.752;2022-12-26T16:46:13;11.90;99.90
46137;DHT22;31871;49.418;8.752;2022-12-26T16:48:40;11.90;99.90
46137;DHT22;31871;49.418;8.752;2022-12-26T16:51:32;11.90;99.90
46137;DHT22;31871;49.418;8.752;2022-12-26T16:57:10;12.00;99.90
46137;DHT22;31871;49.418;8.752;2022-12-26T16:59:45;11.70;99.90
46137;DHT22;31871;49.418;8.752;2022-12-26T17:02:21;11.50;99.90
46137;DHT22;31871;49.418;8.752;2022-12-26T17:05:02;11.30;99.90
46137;DHT22;31871;49.418;8.752;2022-12-26T17:07:29;11.20;99.90
46137;DHT22;31871;49.418;8.752;2022-12-26T17:09:58;11.10;99.90
46137;DHT22;31871;49.418;8.752;2022-12-26T17:12:33;11.00;99.90
46137;DHT22;31871;49.418;8.752;2022-12-26T17:15:00;10.90;99.90
46137;DHT22;31871;49.418;8.752;2022-12-26T17:19:57;10.70;99.90
46137;DHT22;31871;49.418;8.752;2022-12-26T17:22:33;10.50;99.90
46137;DHT22;31871;49.418;8.752;2022-12-26T17:25:20;10.50;99.90
46137;DHT22;31871;49.418;8.752;2022-12-26T17:28:19;10.50;99.90
46137;DHT22;31871;49.418;8.752;2022-12-26T17:30:36;10.50;99.90
46137;DHT22;31871;49.418;8.752;2022-12-26T17:35:30;10.50;99.90
46137;DHT22;31871;49.418;8.752;2022-12-26T17:38:00;10.60;99.90
46137;DHT22;31871;49.418;8.752;2022-12-26T17:40:31;10.60;99.90
46137;DHT22;31871;49.418;8.752;2022-12-26T17:45:36;10.50;99.90
46137;DHT22;31871;49.418;8.752;2022-12-26T17:48:02;10.50;99.90
46137;DHT22;31871;49.418;8.752;2022-12-26T17:50:40;10.50;99.90
46137;DHT22;31871;49.418;8.752;2022-12-26T17:53:15;10.60;99.90
46137;DHT22;31871;49.418;8.752;2022-12-26T17:55:42;10.60;99.90
46137;DHT22;31871;49.418;8.752;2022-12-26T17:58:12;10.50;99.90
46137;DHT22;31871;49.418;8.752;2022-12-26T18:00:39;10.60;99.90
46137;DHT22;31871;49.418;8.752;2022-12-26T18:03:04;10.70;99.90
46137;DHT22;31871;49.418;8.752;2022-12-26T18:05:30;10.70;99.90
46137;DHT22;31871;49.418;8.752;2022-12-26T18:07:57;10.80;99.90
46137;DHT22;31871;49.418;8.752;2022-12-26T18:10:26;10.80;99.90
46137;DHT22;31871;49.418;8.752;2022-12-26T18:12:53;10.70;99.90
46137;DHT22;31871;49.418;8.752;2022-12-26T18:15:20;10.50;99.90
46137;DHT22;31871;49.418;8.752;2022-12-26T18:17:48;10.40;99.90
46137;DHT22;31871;49.418;8.752;2022-12-26T18:20:22;10.40;99.90
46137;DHT22;31871;49.418;8.752;2022-12-26T18:22:48;10.50;99.90
46137;DHT22;31871;49.418;8.752;2022-12-26T18:25:15;10.60;99.90
46137;DHT22;31871;49.418;8.752;2022-12-26T18:27:41;10.60;99.90
46137;DHT22;31871;49.418;8.752;2022-12-26T18:30:15;10.60;99.90
46137;DHT22;31871;49.418;8.752;2022-12-26T18:32:41;10.60;99.90
46137;DHT22;31871;49.418;8.752;2022-12-26T18:35:07;10.60;99.90
46137;DHT22;31871;49.418;8.752;2022-12-26T18:37:33;10.60;99.90
46137;DHT22;31871;49.418;8.752;2022-12-26T18:39:58;10.40;99.90
46137;DHT22;31871;49.418;8.752;2022-12-26T18:42:24;10.30;99.90
46137;DHT22;31871;49.418;8.752;2022-12-26T18:44:51;10.30;99.90
46137;DHT22;31871;49.418;8.752;2022-12-26T18:47:18;10.40;99.90
46137;DHT22;31871;49.418;8.752;2022-12-26T18:49:45;10.50;99.90
46137;DHT22;31871;49.418;8.752;2022-12-26T18:52:12;10.50;99.90
46137;DHT22;31871;49.418;8.752;2022-12-26T18:54:38;10.50;99.90
46137;DHT22;31871;49.418;8.752;2022-12-26T18:57:05;10.60;99.90
46137;DHT22;31871;49.418;8.752;2022-12-26T18:59:31;10.70;99.90
46137;DHT22;31871;49.418;8.752;2022-12-26T19:01:57;10.60;99.90
46137;DHT22;31871;49.418;8.752;2022-12-26T19:04:23;10.50;99.90
46137;DHT22;31871;49.418;8.752;2022-12-26T19:06:48;10.50;99.90
46137;DHT22;31871;49.418;8.752;2022-12-26T19:09:14;10.60;99.90
46137;DHT22;31871;49.418;8.752;2022-12-26T19:11:41;10.60;99.90
46137;DHT22;31871;49.418;8.752;2022-12-26T19:14:09;10.50;99.90
46137;DHT22;31871;49.418;8.752;2022-12-26T19:16:40;10.30;99.90
46137;DHT22;31871;49.418;8.752;2022-12-26T19:19:06;10.30;99.90
46137;DHT22;31871;49.418;8.752;2022-12-26T19:21:31;10.30;99.90
46137;DHT22;31871;49.418;8.752;2022-12-26T19:23:57;10.40;99.90
46137;DHT22;31871;49.418;8.752;2022-12-26T19:26:23;10.40;99.90
46137;DHT22;31871;49.418;8.752;2022-12-26T19:28:52;10.40;99.90
46137;DHT22;31871;49.418;8.752;2022-12-26T19:31:18;10.30;99.90
46137;DHT22;31871;49.418;8.752;2022-12-26T19:33:44;10.30;99.90
46137;DHT22;31871;49.418;8.752;2022-12-26T19:36:09;10.20;99.90
46137;DHT22;31871;49.418;8.752;2022-12-26T19:38:36;10.20;99.90
46137;DHT22;31871;49.418;8.752;2022-12-26T19:41:03;10.20;99.90
46137;DHT22;31871;49.418;8.752;2022-12-26T19:43:30;10.20;99.90
46137;DHT22;31871;49.418;8.752;2022-12-26T19:46:04;10.20;99.90
46137;DHT22;31871;49.418;8.752;2022-12-26T19:48:31;10.10;99.90
46137;DHT22;31871;49.418;8.752;2022-12-26T19:51:08;10.00;99.90
46137;DHT22;31871;49.418;8.752;2022-12-26T19:53:35;10.00;99.90